Time;durP1;ratioP1;P1;durP2;ratioP2;P2;SDS_P1;SDS_P2;PMS_P1;PMS_P2;Temp;Humidity;BMP_temperature;BMP_pressure;BME280_temperature;BME280_humidity;BME280_pressure;Samples;Min_cycle;Max_cycle;Signal;HPM_P1;HPM_P2
2022/06/17 00:01:27;;;;;;;1.90;1.67;;;24.50;37.20;;;;;;5102688;27;20564;-87
2022/06/17 00:03:55;;;;;;;2.30;1.60;;;24.50;37.80;;;;;;5083180;27;20489;-86
2022/06/17 00:06:25;;;;;;;3.10;2.50;;;24.50;38.40;;;;;;5068478;27;20461;-86
2022/06/17 00:08:54;;;;;;;1.33;1.23;;;24.30;36.40;;;;;;5101800;27;20572;-87
2022/06/17 00:11:25;;;;;;;1.73;1.63;;;24.20;36.70;;;;;;5101318;27;20454;-87
2022/06/17 00:13:54;;;;;;;1.50;1.40;;;24.30;36.30;;;;;;5103457;27;20819;-87
2022/06/17 00:16:24;;;;;;;1.83;1.70;;;24.20;36.50;;;;;;5102004;27;20576;-87
2022/06/17 00:18:52;;;;;;;1.73;1.50;;;24.20;36.80;;;;;;5081997;28;20541;-87
2022/06/17 00:21:23;;;;;;;1.87;1.53;;;24.10;37.70;;;;;;5096807;27;20455;-87
2022/06/17 00:23:50;;;;;;;2.20;2.03;;;24.10;38.90;;;;;;5096802;27;20451;-88
2022/06/17 00:26:18;;;;;;;2.50;1.30;;;24.10;39.50;;;;;;5083955;28;20889;-86
2022/06/17 00:28:47;;;;;;;1.90;1.47;;;24.00;38.70;;;;;;5086999;27;20664;-86
2022/06/17 00:31:16;;;;;;;1.43;1.33;;;24.00;38.30;;;;;;5099195;27;20735;-87
2022/06/17 00:33:44;;;;;;;1.60;1.50;;;23.90;37.70;;;;;;5085547;28;20530;-88
2022/06/17 00:36:14;;;;;;;1.33;1.23;;;23.90;37.90;;;;;;5098415;27;20480;-88
2022/06/17 00:38:41;;;;;;;1.60;1.27;;;23.80;37.80;;;;;;5103330;27;20451;-88
2022/06/17 00:41:15;;;;;;;3.50;1.87;;;23.80;37.80;;;;;;5081931;28;20447;-88
2022/06/17 00:43:44;;;;;;;1.93;1.70;;;23.70;37.70;;;;;;5083737;27;20447;-87
2022/06/17 00:46:30;;;;;;;3.43;1.70;;;23.60;38.20;;;;;;5084480;28;21072;-86
2022/06/17 00:49:04;;;;;;;1.70;1.60;;;23.50;39.10;;;;;;5082683;28;20456;-89
2022/06/17 00:51:36;;;;;;;2.43;1.93;;;23.40;40.10;;;;;;5066009;28;20674;-88
2022/06/17 00:54:23;;;;;;;2.13;2.03;;;23.30;40.60;;;;;;5074011;27;21048;-89
2022/06/17 00:56:51;;;;;;;2.30;2.10;;;23.20;42.20;;;;;;5058428;27;20465;-88
2022/06/17 00:59:18;;;;;;;5.63;2.43;;;23.20;43.00;;;;;;5083616;28;20604;-90
2022/06/17 01:01:53;;;;;;;3.97;2.10;;;23.20;43.70;;;;;;5067850;27;20441;-86
2022/06/17 01:04:27;;;;;;;4.83;2.37;;;23.20;43.80;;;;;;5100430;27;20436;-87
2022/06/17 01:06:57;;;;;;;2.73;2.17;;;23.20;43.40;;;;;;5098676;27;21024;-89
2022/06/17 01:12:16;;;;;;;1.70;1.60;;;23.00;41.10;;;;;;5071113;28;20462;-88
2022/06/17 01:14:44;;;;;;;2.00;1.80;;;23.00;40.70;;;;;;5098205;27;20486;-86
2022/06/17 01:17:16;;;;;;;2.57;1.90;;;22.90;40.20;;;;;;5079578;27;20463;-87
2022/06/17 01:19:45;;;;;;;1.73;1.63;;;22.70;41.30;;;;;;5064526;28;20587;-87
2022/06/17 01:22:42;;;;;;;1.90;1.80;;;22.70;41.50;;;;;;5084390;28;20462;-86
2022/06/17 01:25:14;;;;;;;2.07;1.80;;;22.70;41.30;;;;;;5081141;27;20456;-87
2022/06/17 01:27:45;;;;;;;1.80;1.70;;;22.70;41.20;;;;;;5069883;28;20524;-87
2022/06/17 01:30:16;;;;;;;2.17;2.07;;;22.30;40.50;;;;;;5062364;28;20454;-86
2022/06/17 01:32:48;;;;;;;1.53;1.30;;;21.80;40.70;;;;;;5084830;28;20989;-89
2022/06/17 01:35:16;;;;;;;3.30;1.73;;;21.80;41.10;;;;;;5100482;28;20536;-86
2022/06/17 01:37:45;;;;;;;2.60;1.73;;;21.90;41.40;;;;;;5066588;28;20474;-87
2022/06/17 01:40:13;;;;;;;2.93;1.77;;;22.00;41.40;;;;;;5094355;28;20453;-87
2022/06/17 01:42:41;;;;;;;2.27;1.50;;;22.20;41.90;;;;;;5066118;28;21248;-89
2022/06/17 01:45:10;;;;;;;1.80;1.63;;;22.20;40.90;;;;;;5099649;28;20531;-89
2022/06/17 01:47:40;;;;;;;1.80;1.70;;;22.30;40.90;;;;;;5067391;28;20475;-89
2022/06/17 01:50:12;;;;;;;3.70;1.90;;;22.30;41.20;;;;;;5090391;28;20990;-87
2022/06/17 01:52:42;;;;;;;1.80;1.70;;;22.30;41.20;;;;;;5100975;28;20479;-88
2022/06/17 01:55:15;;;;;;;2.83;2.00;;;22.30;41.00;;;;;;5107009;28;20558;-89
2022/06/17 01:57:49;;;;;;;2.20;1.40;;;22.30;41.10;;;;;;5082354;28;20569;-88
2022/06/17 02:00:20;;;;;;;1.90;1.80;;;22.30;40.70;;;;;;5081412;28;20447;-88
2022/06/17 02:02:53;;;;;;;1.80;1.70;;;22.20;41.10;;;;;;5099310;28;20785;-87
2022/06/17 02:05:22;;;;;;;2.47;1.80;;;22.20;41.20;;;;;;5072357;28;21090;-86
2022/06/17 02:07:53;;;;;;;1.83;1.73;;;22.20;41.20;;;;;;5092298;28;20974;-86
2022/06/17 02:10:23;;;;;;;2.40;2.20;;;22.10;41.30;;;;;;5084405;28;20446;-89
2022/06/17 02:12:53;;;;;;;1.93;1.80;;;22.10;41.20;;;;;;5071479;28;20439;-87
2022/06/17 02:15:22;;;;;;;2.07;1.87;;;22.00;41.90;;;;;;5085905;28;20451;-87
2022/06/17 02:18:27;;;;;;;2.47;2.27;;;22.00;42.50;;;;;;5038552;28;20843;-88
2022/06/17 02:21:09;;;;;;;1.97;1.73;;;21.90;43.30;;;;;;5018691;28;20485;-86
2022/06/17 02:23:36;;;;;;;2.70;2.30;;;21.90;43.40;;;;;;5052172;28;20439;-88
2022/06/17 02:26:08;;;;;;;2.23;2.03;;;21.80;43.50;;;;;;5097461;27;20442;-87
2022/06/17 02:28:36;;;;;;;2.57;2.07;;;21.70;43.80;;;;;;5083505;28;20855;-89
2022/06/17 02:31:08;;;;;;;2.90;2.20;;;21.70;43.60;;;;;;5082360;28;20450;-86
2022/06/17 02:33:36;;;;;;;3.00;1.90;;;21.70;43.80;;;;;;5084373;28;20545;-86
2022/06/17 02:36:09;;;;;;;2.03;1.83;;;21.60;43.80;;;;;;5078879;28;20438;-86
2022/06/17 02:38:38;;;;;;;2.07;1.97;;;21.60;43.40;;;;;;5066553;28;20463;-89
2022/06/17 02:41:12;;;;;;;2.03;1.93;;;21.50;43.10;;;;;;5081414;28;20962;-88
2022/06/17 02:43:45;;;;;;;1.73;1.63;;;21.40;44.00;;;;;;5101921;27;20443;-87
2022/06/17 02:46:15;;;;;;;2.30;2.00;;;21.40;43.90;;;;;;5101484;27;20462;-87
2022/06/17 02:48:50;;;;;;;3.90;1.90;;;21.40;44.20;;;;;;5085888;27;20482;-87
2022/06/17 02:51:17;;;;;;;7.83;2.20;;;21.40;44.20;;;;;;5099629;27;20457;-88
2022/06/17 02:53:46;;;;;;;1.90;1.70;;;21.40;44.10;;;;;;5107746;27;20462;-91
2022/06/17 02:56:18;;;;;;;11.50;2.27;;;21.40;44.70;;;;;;5101136;27;20477;-87
2022/06/17 02:58:56;;;;;;;5.03;2.27;;;21.30;45.10;;;;;;5082402;28;20459;-87
2022/06/17 03:01:26;;;;;;;5.40;3.00;;;21.30;44.90;;;;;;5068084;27;20440;-86
2022/06/17 03:04:12;;;;;;;3.63;2.87;;;21.20;45.00;;;;;;5067389;27;20462;-87
2022/06/17 03:06:42;;;;;;;2.63;2.13;;;21.20;45.10;;;;;;5100494;27;20461;-87
2022/06/17 03:09:19;;;;;;;3.40;2.47;;;21.20;45.30;;;;;;5100184;27;20459;-87
2022/06/17 03:11:53;;;;;;;2.30;2.10;;;21.10;45.30;;;;;;5101920;27;21148;-86
2022/06/17 03:14:21;;;;;;;2.67;2.47;;;21.10;45.50;;;;;;5082677;27;21226;-86
2022/06/17 03:16:52;;;;;;;2.20;2.00;;;21.00;45.60;;;;;;5084553;27;20476;-86
2022/06/17 03:19:20;;;;;;;2.00;1.80;;;20.90;45.50;;;;;;5086319;28;20564;-87
2022/06/17 03:21:47;;;;;;;3.17;2.87;;;20.90;45.70;;;;;;5100746;27;21112;-86
2022/06/17 03:24:22;;;;;;;4.17;3.83;;;20.80;46.00;;;;;;5083390;28;20524;-87
2022/06/17 03:26:55;;;;;;;3.73;2.60;;;20.90;46.50;;;;;;5101295;27;20564;-88
2022/06/17 03:29:24;;;;;;;2.90;2.70;;;20.90;46.60;;;;;;5096394;27;20442;-87
2022/06/17 03:31:56;;;;;;;7.00;2.43;;;20.90;46.40;;;;;;5090237;27;20451;-86
2022/06/17 03:34:30;;;;;;;3.93;2.83;;;20.70;45.20;;;;;;5092509;27;20465;-88
2022/06/17 03:37:03;;;;;;;5.40;2.70;;;20.60;45.80;;;;;;5107929;27;20570;-87
2022/06/17 03:39:35;;;;;;;6.60;2.00;;;20.70;45.90;;;;;;5067589;27;21038;-87
2022/06/17 03:42:12;;;;;;;5.80;2.60;;;20.70;46.00;;;;;;5083998;28;20544;-87
2022/06/17 03:44:44;;;;;;;3.10;2.30;;;20.70;46.90;;;;;;5103178;27;20478;-87
2022/06/17 03:47:18;;;;;;;3.30;2.43;;;20.70;47.10;;;;;;5080539;28;20483;-89
2022/06/17 03:49:51;;;;;;;4.97;2.70;;;20.70;47.10;;;;;;5096225;27;20481;-87
2022/06/17 03:52:26;;;;;;;3.43;2.03;;;20.70;47.50;;;;;;5065109;28;20941;-87
2022/06/17 03:55:00;;;;;;;3.00;2.60;;;20.70;47.40;;;;;;5082955;28;21139;-85
2022/06/17 03:57:32;;;;;;;2.83;2.53;;;20.70;47.30;;;;;;5100024;27;20471;-86
2022/06/17 04:00:01;;;;;;;2.80;2.60;;;20.70;47.70;;;;;;5084654;28;20458;-87
2022/06/17 04:02:32;;;;;;;3.90;2.40;;;20.70;47.60;;;;;;5099641;27;20448;-87
2022/06/17 04:05:02;;;;;;;2.53;2.13;;;20.80;47.60;;;;;;5061375;27;20492;-89
2022/06/17 04:07:31;;;;;;;3.30;2.27;;;20.80;47.70;;;;;;5084676;27;20474;-87
2022/06/17 04:10:01;;;;;;;2.87;2.53;;;20.80;47.70;;;;;;5081905;27;20548;-88
2022/06/17 04:12:30;;;;;;;4.60;2.17;;;20.80;47.60;;;;;;5084847;27;20461;-86
2022/06/17 04:15:37;;;;;;;2.97;2.67;;;20.80;47.80;;;;;;5081153;27;20716;-87
2022/06/17 04:18:04;;;;;;;2.30;2.20;;;20.80;47.90;;;;;;5085423;27;21005;-87
2022/06/17 04:20:38;;;;;;;4.30;2.87;;;20.80;47.90;;;;;;5101081;27;20443;-85
2022/06/17 04:23:10;;;;;;;2.43;2.23;;;20.80;47.90;;;;;;5083421;27;20504;-89
2022/06/17 04:25:56;;;;;;;2.60;2.40;;;20.80;47.80;;;;;;5084013;28;20450;-86
2022/06/17 04:28:30;;;;;;;3.00;2.70;;;20.80;47.70;;;;;;5072440;28;20466;-87
2022/06/17 04:31:00;;;;;;;2.47;2.20;;;20.90;47.80;;;;;;5052545;27;20450;-86
2022/06/17 04:33:30;;;;;;;3.83;2.40;;;20.80;47.70;;;;;;5067106;28;20917;-88
2022/06/17 04:36:01;;;;;;;2.80;2.60;;;20.80;47.70;;;;;;5083559;28;20447;-87
2022/06/17 04:38:35;;;;;;;4.63;2.53;;;20.80;47.80;;;;;;5093917;27;20575;-88
2022/06/17 04:41:19;;;;;;;2.70;2.50;;;20.80;48.20;;;;;;5050431;27;20895;-88
2022/06/17 04:44:06;;;;;;;4.37;2.53;;;20.80;48.50;;;;;;5062528;28;20457;-87
2022/06/17 04:46:38;;;;;;;4.63;2.43;;;20.80;48.40;;;;;;5081042;27;20545;-87
2022/06/17 04:49:06;;;;;;;2.40;2.20;;;20.80;48.60;;;;;;5081390;28;21372;-88
2022/06/17 04:51:36;;;;;;;3.00;2.70;;;20.80;48.80;;;;;;5059353;28;20455;-86
2022/06/17 04:54:12;;;;;;;3.20;2.43;;;20.70;48.90;;;;;;5079098;28;20455;-87
2022/06/17 04:57:16;;;;;;;4.27;2.60;;;20.70;48.90;;;;;;5083074;28;20469;-86
2022/06/17 04:59:50;;;;;;;3.47;2.90;;;20.60;48.50;;;;;;5048630;28;20549;-88
2022/06/17 05:02:21;;;;;;;2.53;2.33;;;20.60;48.80;;;;;;5062477;28;20491;-87
2022/06/17 05:05:22;;;;;;;3.43;2.33;;;20.50;48.90;;;;;;5083885;28;20450;-87
2022/06/17 05:07:52;;;;;;;2.93;2.57;;;20.50;48.80;;;;;;5094476;27;20495;-87
2022/06/17 05:10:26;;;;;;;2.83;2.63;;;20.20;49.40;;;;;;5061810;28;20442;-88
2022/06/17 05:12:58;;;;;;;3.13;2.50;;;20.30;49.40;;;;;;5077164;27;20446;-87
2022/06/17 05:15:28;;;;;;;4.20;2.33;;;20.20;49.50;;;;;;5084721;27;20463;-87
2022/06/17 05:17:56;;;;;;;3.67;3.13;;;20.40;49.20;;;;;;5082196;28;20466;-87
2022/06/17 05:20:25;;;;;;;4.97;3.33;;;20.30;48.80;;;;;;5066026;28;20447;-86
2022/06/17 05:22:56;;;;;;;2.80;2.43;;;20.00;49.80;;;;;;5045658;28;21031;-87
2022/06/17 05:25:26;;;;;;;2.60;2.40;;;20.10;49.40;;;;;;5066195;28;20458;-86
2022/06/17 05:27:53;;;;;;;7.20;2.70;;;20.30;49.50;;;;;;5049379;28;20462;-86
2022/06/17 05:30:21;;;;;;;4.43;2.23;;;20.40;49.20;;;;;;5064000;28;21238;-86
2022/06/17 05:32:56;;;;;;;2.70;2.27;;;20.60;48.70;;;;;;5070608;28;20454;-88
2022/06/17 05:35:26;;;;;;;2.20;2.00;;;20.70;48.70;;;;;;5048790;28;20514;-86
2022/06/17 05:37:53;;;;;;;4.23;2.73;;;20.70;48.40;;;;;;5055224;28;20478;-88
2022/06/17 05:40:21;;;;;;;8.33;2.50;;;20.90;48.20;;;;;;5082954;28;20451;-87
2022/06/17 05:42:49;;;;;;;5.33;2.80;;;21.00;47.70;;;;;;5067058;28;20447;-86
2022/06/17 05:45:20;;;;;;;2.83;2.57;;;21.10;47.50;;;;;;5062127;28;20890;-86
2022/06/17 05:48:08;;;;;;;5.40;2.50;;;21.20;47.00;;;;;;5075957;28;20491;-86
2022/06/17 05:50:58;;;;;;;6.27;2.33;;;21.20;47.30;;;;;;5082333;28;20483;-88
2022/06/17 05:53:30;;;;;;;7.00;2.80;;;21.30;47.20;;;;;;5067507;28;20451;-87
2022/06/17 05:56:09;;;;;;;3.93;2.40;;;21.60;47.50;;;;;;5081476;28;21046;-87
2022/06/17 05:58:37;;;;;;;6.27;2.40;;;21.80;47.20;;;;;;5081772;28;20477;-86
2022/06/17 06:01:04;;;;;;;2.90;2.60;;;21.80;46.30;;;;;;5065642;28;20977;-86
2022/06/17 06:03:32;;;;;;;4.60;2.20;;;21.80;46.30;;;;;;5068803;28;20457;-85
2022/06/17 06:06:05;;;;;;;2.30;2.20;;;21.90;46.20;;;;;;5039840;28;20446;-86
2022/06/17 06:08:32;;;;;;;3.40;2.10;;;21.80;46.70;;;;;;5050495;28;20467;-89
2022/06/17 06:11:00;;;;;;;4.80;2.13;;;21.70;46.50;;;;;;5079275;28;22756;-88
2022/06/17 06:13:29;;;;;;;4.77;3.07;;;21.80;46.40;;;;;;5078817;28;20450;-87
2022/06/17 06:15:59;;;;;;;2.23;2.03;;;21.90;45.90;;;;;;5078490;27;20465;-88
2022/06/17 06:18:50;;;;;;;2.57;2.37;;;22.10;45.60;;;;;;5080348;27;21113;-87
2022/06/17 06:21:19;;;;;;;7.20;2.67;;;22.50;46.00;;;;;;5052844;28;20460;-91
2022/06/17 06:23:47;;;;;;;4.70;2.13;;;22.70;44.50;;;;;;5081697;27;21155;-88
2022/06/17 06:26:21;;;;;;;6.47;2.03;;;22.80;45.20;;;;;;5068674;27;20477;-87
2022/06/17 06:28:56;;;;;;;2.60;2.40;;;22.90;44.70;;;;;;5066294;28;20997;-87
2022/06/17 06:31:30;;;;;;;4.83;2.13;;;23.20;43.90;;;;;;5099981;27;20458;-86
2022/06/17 06:34:00;;;;;;;4.80;2.17;;;23.30;44.40;;;;;;5073957;28;20452;-86
2022/06/17 06:36:33;;;;;;;4.40;2.30;;;23.50;43.40;;;;;;5066442;27;20566;-86
2022/06/17 06:39:01;;;;;;;3.43;2.17;;;23.50;43.50;;;;;;5064755;27;20845;-87
2022/06/17 06:41:28;;;;;;;2.83;2.17;;;23.70;44.00;;;;;;5086276;28;20438;-87
2022/06/17 06:43:56;;;;;;;2.90;1.93;;;23.90;43.30;;;;;;5070423;27;20487;-87
2022/06/17 06:46:42;;;;;;;4.10;2.23;;;24.00;43.10;;;;;;5098777;27;21041;-87
2022/06/17 06:49:23;;;;;;;5.50;2.60;;;24.20;42.30;;;;;;5081213;27;20443;-86
2022/06/17 06:51:49;;;;;;;4.30;2.47;;;24.40;42.90;;;;;;5067435;27;20443;-87
2022/06/17 06:54:16;;;;;;;6.23;2.70;;;24.20;42.00;;;;;;5083681;27;20537;-87
2022/06/17 06:56:43;;;;;;;3.80;2.97;;;24.10;41.90;;;;;;5082462;27;20582;-86
2022/06/17 06:59:12;;;;;;;5.60;2.30;;;24.00;42.00;;;;;;5083154;28;20508;-89
2022/06/17 07:01:39;;;;;;;6.07;2.20;;;24.00;42.40;;;;;;5065657;27;20523;-87
2022/06/17 07:04:06;;;;;;;2.77;1.97;;;24.00;42.50;;;;;;5068013;27;20490;-86
2022/06/17 07:06:36;;;;;;;3.87;2.27;;;23.80;42.70;;;;;;5064910;27;20985;-86
2022/06/17 07:09:04;;;;;;;3.17;2.17;;;23.80;42.70;;;;;;5100587;27;20477;-86
2022/06/17 07:11:30;;;;;;;4.37;2.50;;;24.10;42.50;;;;;;5080528;27;20931;-88
2022/06/17 07:13:57;;;;;;;3.20;2.47;;;24.30;41.50;;;;;;5081837;27;20451;-87
2022/06/17 07:16:24;;;;;;;3.33;2.20;;;24.50;41.90;;;;;;5064544;27;20454;-87
2022/06/17 07:18:51;;;;;;;4.53;2.23;;;24.70;41.70;;;;;;5083338;28;20551;-87
2022/06/17 07:21:18;;;;;;;4.03;1.93;;;24.60;39.70;;;;;;5099233;27;20455;-86
2022/06/17 07:23:47;;;;;;;2.33;1.83;;;24.60;41.20;;;;;;5103293;27;20470;-86
2022/06/17 07:26:16;;;;;;;2.97;2.20;;;24.70;40.30;;;;;;5080702;28;20459;-85
2022/06/17 07:28:44;;;;;;;4.50;2.20;;;24.70;40.80;;;;;;5080892;28;20476;-87
2022/06/17 07:31:12;;;;;;;10.70;2.53;;;24.90;41.00;;;;;;5078364;28;20458;-85
2022/06/17 07:33:39;;;;;;;6.20;2.90;;;25.20;41.00;;;;;;5079905;27;20451;-87
2022/06/17 07:36:07;;;;;;;5.33;2.00;;;25.50;40.30;;;;;;5079803;27;20457;-87
2022/06/17 07:41:24;;;;;;;2.77;2.07;;;25.70;38.40;;;;;;5082631;27;20435;-86
2022/06/17 07:43:52;;;;;;;3.10;2.80;;;25.90;38.20;;;;;;5082034;28;20841;-86
2022/06/17 07:46:19;;;;;;;3.10;2.13;;;25.80;37.00;;;;;;5081060;27;20477;-85
2022/06/17 07:48:46;;;;;;;2.70;2.07;;;25.90;37.50;;;;;;5101906;27;21217;-86
2022/06/17 07:51:13;;;;;;;2.00;1.73;;;26.00;37.40;;;;;;5099806;27;20459;-86
2022/06/17 07:53:41;;;;;;;5.07;2.33;;;26.10;37.20;;;;;;5079212;27;20447;-86
2022/06/17 07:56:10;;;;;;;3.93;2.07;;;26.20;37.30;;;;;;5056838;27;20462;-86
2022/06/17 07:58:38;;;;;;;2.17;1.77;;;26.20;36.30;;;;;;5097412;27;20478;-86
2022/06/17 08:01:06;;;;;;;4.23;1.80;;;26.20;35.00;;;;;;5062686;27;20458;-87
2022/06/17 08:03:34;;;;;;;1.83;1.73;;;26.30;35.50;;;;;;5061785;27;20778;-86
2022/06/17 08:06:02;;;;;;;2.30;1.60;;;26.40;35.30;;;;;;5092973;27;20445;-88
2022/06/17 08:08:32;;;;;;;4.03;1.80;;;26.80;35.80;;;;;;5061500;27;20455;-86
2022/06/17 08:11:00;;;;;;;3.97;1.90;;;26.80;34.40;;;;;;5075036;28;20468;-85
2022/06/17 08:13:28;;;;;;;2.30;2.10;;;26.80;33.80;;;;;;5077471;27;20482;-87
2022/06/17 08:15:59;;;;;;;2.70;1.90;;;26.90;34.50;;;;;;5095057;27;21274;-85
2022/06/17 08:18:26;;;;;;;3.50;1.60;;;27.00;34.60;;;;;;5075273;28;21289;-87
2022/06/17 08:20:54;;;;;;;2.23;1.70;;;27.10;34.00;;;;;;5061340;27;20473;-87
2022/06/17 08:23:21;;;;;;;2.53;2.00;;;27.20;34.10;;;;;;5078327;27;20451;-86
2022/06/17 08:25:49;;;;;;;1.73;1.63;;;27.30;34.30;;;;;;5075711;27;20931;-86
2022/06/17 08:28:19;;;;;;;2.33;2.10;;;27.50;33.40;;;;;;5077520;27;21408;-86
2022/06/17 08:30:48;;;;;;;2.13;2.00;;;27.60;33.00;;;;;;5098778;27;20439;-85
2022/06/17 08:33:18;;;;;;;2.20;1.67;;;27.50;32.30;;;;;;5097795;27;20845;-86
2022/06/17 08:35:48;;;;;;;3.00;2.03;;;27.50;32.40;;;;;;5091720;27;20446;-85
2022/06/17 08:38:20;;;;;;;6.20;1.87;;;27.40;32.60;;;;;;5068615;28;20908;-85
2022/06/17 08:40:55;;;;;;;2.10;2.00;;;27.80;32.50;;;;;;5049511;27;20454;-87
2022/06/17 08:43:46;;;;;;;2.43;2.23;;;28.10;31.70;;;;;;5080049;28;21006;-87
2022/06/17 08:46:18;;;;;;;3.93;2.30;;;28.10;31.20;;;;;;5056884;28;20451;-85
2022/06/17 08:49:04;;;;;;;1.70;1.60;;;28.40;31.90;;;;;;5064336;27;20500;-85
2022/06/17 08:51:44;;;;;;;2.03;1.73;;;28.50;31.30;;;;;;5060099;27;21182;-88
2022/06/17 08:54:25;;;;;;;2.43;1.70;;;28.60;30.80;;;;;;5076540;27;20454;-88
2022/06/17 08:56:59;;;;;;;3.00;2.17;;;28.40;30.00;;;;;;5054415;28;20854;-87
2022/06/17 08:59:44;;;;;;;2.10;1.90;;;28.30;31.30;;;;;;5077554;27;20842;-88
2022/06/17 09:02:20;;;;;;;2.03;1.83;;;28.20;30.50;;;;;;5077731;28;20551;-87
2022/06/17 09:05:04;;;;;;;1.90;1.80;;;28.50;31.00;;;;;;5084625;28;21244;-87
2022/06/17 09:07:39;;;;;;;1.97;1.87;;;28.90;29.20;;;;;;5091521;28;20478;-87
2022/06/17 09:10:20;;;;;;;2.50;1.73;;;28.50;29.40;;;;;;5077033;27;20449;-86
2022/06/17 09:12:58;;;;;;;3.00;1.83;;;28.60;30.90;;;;;;5093833;27;20446;-87
2022/06/17 09:15:33;;;;;;;1.70;1.60;;;28.80;29.90;;;;;;5077449;28;20480;-87
2022/06/17 09:18:11;;;;;;;1.83;1.60;;;29.10;29.50;;;;;;5095999;27;20477;-87
2022/06/17 09:20:42;;;;;;;3.30;1.97;;;29.30;28.90;;;;;;5096950;27;20467;-84
2022/06/17 09:23:12;;;;;;;1.87;1.70;;;29.30;27.60;;;;;;5091934;28;20438;-85
2022/06/17 09:25:42;;;;;;;1.60;1.43;;;29.30;27.90;;;;;;5078806;28;20451;-85
2022/06/17 09:28:14;;;;;;;3.97;2.17;;;29.30;28.20;;;;;;5064592;28;20501;-85
2022/06/17 09:30:50;;;;;;;1.90;1.70;;;29.30;28.20;;;;;;5092006;27;20439;-86
2022/06/17 09:33:24;;;;;;;1.73;1.60;;;29.40;28.00;;;;;;5081736;27;20487;-86
2022/06/17 09:36:00;;;;;;;2.90;1.70;;;29.70;29.00;;;;;;5066042;28;20959;-88
2022/06/17 09:38:34;;;;;;;2.27;1.60;;;29.90;28.40;;;;;;5093406;28;20486;-86
2022/06/17 09:41:07;;;;;;;2.20;1.90;;;29.70;28.00;;;;;;5077333;28;20469;-87
2022/06/17 09:43:41;;;;;;;2.73;1.40;;;29.90;26.40;;;;;;5095417;28;20455;-85
2022/06/17 09:46:14;;;;;;;2.37;1.47;;;30.20;27.50;;;;;;5092279;28;20453;-85
2022/06/17 09:48:46;;;;;;;2.17;1.70;;;30.70;27.20;;;;;;5093201;28;20489;-83
2022/06/17 09:51:20;;;;;;;1.93;1.70;;;30.70;25.90;;;;;;5093307;27;20467;-86
2022/06/17 09:53:52;;;;;;;2.03;1.80;;;30.40;28.00;;;;;;5095601;27;20944;-85
2022/06/17 09:56:26;;;;;;;1.60;1.50;;;30.30;27.00;;;;;;5076709;28;20557;-85
2022/06/17 09:59:01;;;;;;;2.70;1.60;;;30.70;27.20;;;;;;5099125;27;20456;-85
2022/06/17 10:01:29;;;;;;;2.00;1.53;;;30.70;27.30;;;;;;5097762;27;20466;-85
2022/06/17 10:03:55;;;;;;;3.27;1.60;;;31.10;27.10;;;;;;5101229;27;20458;-86
2022/06/17 10:06:36;;;;;;;1.90;1.80;;;30.80;25.40;;;;;;5082039;27;21104;-86
2022/06/17 10:09:22;;;;;;;3.40;1.70;;;30.30;27.80;;;;;;5098739;27;20447;-86
2022/06/17 10:11:56;;;;;;;2.20;1.63;;;30.60;27.00;;;;;;5100886;27;20526;-86
2022/06/17 10:14:44;;;;;;;3.77;1.53;;;31.20;26.80;;;;;;5098639;27;20445;-87
2022/06/17 10:20:14;;;;;;;3.90;1.67;;;32.10;25.70;;;;;;5059748;27;21056;-86
2022/06/17 10:22:54;;;;;;;2.13;1.90;;;32.10;25.80;;;;;;5086870;28;20921;-86
2022/06/17 10:25:39;;;;;;;1.80;1.30;;;32.00;24.90;;;;;;5094511;27;21121;-85
2022/06/17 10:28:19;;;;;;;3.40;1.37;;;31.90;25.30;;;;;;5097706;27;20485;-86
2022/06/17 10:30:55;;;;;;;1.70;1.20;;;32.20;25.50;;;;;;5098968;27;20484;-86
2022/06/17 10:33:23;;;;;;;1.43;1.20;;;32.40;23.90;;;;;;5096621;27;20969;-86
2022/06/17 10:35:51;;;;;;;1.97;1.70;;;32.20;23.20;;;;;;5097647;27;20457;-88
2022/06/17 10:38:23;;;;;;;2.50;1.70;;;31.60;24.30;;;;;;5097409;27;20478;-86
2022/06/17 10:40:50;;;;;;;1.60;1.50;;;31.90;24.00;;;;;;5077864;27;20500;-87
2022/06/17 10:43:20;;;;;;;6.40;1.70;;;32.00;23.70;;;;;;5080738;27;21201;-87
2022/06/17 10:45:48;;;;;;;3.00;1.97;;;32.10;23.90;;;;;;5079644;27;20445;-85
2022/06/17 10:48:23;;;;;;;5.43;1.80;;;32.00;24.60;;;;;;5097254;27;20463;-86
2022/06/17 10:50:50;;;;;;;1.97;1.47;;;32.20;24.80;;;;;;5078182;28;20450;-86
2022/06/17 10:53:24;;;;;;;4.00;1.93;;;32.50;25.40;;;;;;5076876;27;20470;-87
2022/06/17 10:55:55;;;;;;;2.80;1.40;;;32.90;24.60;;;;;;5096826;27;20454;-86
2022/06/17 10:58:24;;;;;;;1.77;1.30;;;32.80;23.50;;;;;;5079556;27;20477;-85
2022/06/17 11:00:57;;;;;;;1.90;1.80;;;33.10;24.60;;;;;;5098803;27;20518;-88
2022/06/17 11:03:28;;;;;;;3.30;1.70;;;33.50;23.60;;;;;;5068813;27;20467;-83
2022/06/17 11:06:03;;;;;;;1.50;1.40;;;33.40;23.80;;;;;;5102151;27;20475;-86
2022/06/17 11:08:36;;;;;;;2.33;1.73;;;33.30;23.10;;;;;;5082136;27;20467;-86
2022/06/17 11:13:53;;;;;;;8.10;1.40;;;32.50;24.20;;;;;;5099733;27;20478;-87
2022/06/17 11:16:22;;;;;;;3.57;1.50;;;32.60;23.70;;;;;;5080708;28;21124;-85
2022/06/17 11:18:58;;;;;;;3.37;1.67;;;32.70;23.50;;;;;;5100062;27;20452;-86
2022/06/17 11:21:31;;;;;;;1.67;1.50;;;32.90;23.20;;;;;;5100235;27;20982;-88
2022/06/17 11:24:00;;;;;;;3.43;1.70;;;33.10;24.20;;;;;;5098385;27;20447;-87
2022/06/17 11:26:30;;;;;;;2.23;1.50;;;33.10;23.00;;;;;;5087428;27;20458;-87
2022/06/17 11:29:00;;;;;;;1.90;1.80;;;33.40;24.20;;;;;;5049379;27;20530;-85
2022/06/17 11:31:33;;;;;;;1.57;1.47;;;33.40;23.20;;;;;;5095072;27;20553;-85
2022/06/17 11:34:02;;;;;;;1.50;1.40;;;33.40;23.20;;;;;;5064246;28;21268;-86
2022/06/17 11:36:31;;;;;;;1.70;1.60;;;33.10;23.40;;;;;;5074389;27;20541;-85
2022/06/17 11:39:28;;;;;;;3.30;1.30;;;33.20;24.50;;;;;;5096928;27;20471;-88
2022/06/17 11:41:56;;;;;;;1.43;1.33;;;33.20;23.10;;;;;;5082264;28;20525;-86
2022/06/17 11:44:24;;;;;;;1.57;1.47;;;33.30;23.80;;;;;;5084029;28;20486;-87
2022/06/17 11:46:55;;;;;;;2.00;1.50;;;33.50;23.90;;;;;;5098932;27;20485;-87
2022/06/17 11:49:22;;;;;;;2.80;1.80;;;33.70;23.50;;;;;;5101391;27;20459;-86
2022/06/17 11:51:53;;;;;;;2.57;1.53;;;33.50;23.20;;;;;;5100367;27;20466;-87
2022/06/17 11:54:26;;;;;;;4.80;1.90;;;33.20;23.10;;;;;;5100418;27;20452;-85
2022/06/17 11:56:54;;;;;;;4.03;2.20;;;33.00;23.50;;;;;;5097855;27;20478;-85
2022/06/17 11:59:24;;;;;;;1.90;1.33;;;32.40;23.00;;;;;;5083667;28;20983;-87
2022/06/17 12:02:03;;;;;;;2.17;1.60;;;32.70;24.20;;;;;;5102288;27;20481;-85
2022/06/17 12:04:40;;;;;;;1.80;1.47;;;33.20;24.00;;;;;;5096925;27;20442;-85
2022/06/17 12:07:35;;;;;;;4.90;1.53;;;33.60;23.60;;;;;;5082542;27;20470;-85
2022/06/17 12:10:18;;;;;;;1.63;1.50;;;33.80;22.90;;;;;;5091207;27;20443;-84
2022/06/17 12:12:45;;;;;;;6.43;1.70;;;33.70;22.50;;;;;;5098413;27;20449;-86
2022/06/17 12:15:25;;;;;;;1.70;1.60;;;34.00;24.50;;;;;;5079277;28;20523;-85
2022/06/17 12:17:56;;;;;;;2.60;1.90;;;34.30;21.90;;;;;;5097410;27;20458;-84
2022/06/17 12:20:29;;;;;;;3.10;1.60;;;34.40;22.50;;;;;;5080768;27;20637;-84
2022/06/17 12:23:06;;;;;;;8.20;2.27;;;34.20;22.50;;;;;;5098769;27;20449;-85
2022/06/17 12:25:45;;;;;;;1.70;1.40;;;34.10;22.00;;;;;;5050819;28;21214;-86
2022/06/17 12:28:24;;;;;;;1.40;1.30;;;34.30;22.00;;;;;;5080472;27;20474;-85
2022/06/17 12:30:59;;;;;;;1.73;1.37;;;34.20;22.30;;;;;;5078914;27;20450;-86
2022/06/17 12:33:32;;;;;;;3.40;1.67;;;34.70;22.80;;;;;;5096528;27;20453;-86
2022/06/17 12:36:03;;;;;;;2.50;1.43;;;35.00;22.10;;;;;;5083652;28;20456;-86
2022/06/17 12:38:38;;;;;;;3.10;1.40;;;35.10;21.50;;;;;;5098585;27;20506;-89
2022/06/17 12:41:13;;;;;;;1.40;1.30;;;34.80;21.90;;;;;;5079025;27;20458;-86
2022/06/17 12:43:49;;;;;;;1.47;1.37;;;34.50;22.30;;;;;;5088764;27;21020;-86
2022/06/17 12:46:23;;;;;;;1.60;1.50;;;34.60;22.40;;;;;;5098950;27;20442;-86
2022/06/17 12:48:55;;;;;;;1.40;1.30;;;34.60;21.70;;;;;;5081078;27;20985;-87
2022/06/17 12:54:19;;;;;;;2.70;1.50;;;34.80;22.20;;;;;;5056955;28;20431;-86
2022/06/17 12:56:58;;;;;;;1.67;1.47;;;35.00;21.80;;;;;;5074567;27;20472;-86
2022/06/17 12:59:39;;;;;;;2.53;1.53;;;35.20;21.20;;;;;;5091389;27;20447;-87
2022/06/17 13:02:12;;;;;;;9.63;1.37;;;35.30;21.60;;;;;;5094418;27;20496;-85
2022/06/17 13:04:59;;;;;;;1.63;1.53;;;35.50;21.40;;;;;;5062749;28;21142;-87
2022/06/17 13:07:33;;;;;;;4.77;1.53;;;35.10;20.80;;;;;;5081375;27;20470;-85
2022/06/17 13:12:59;;;;;;;1.40;1.30;;;34.80;22.00;;;;;;5058982;27;20426;-86
2022/06/17 13:15:29;;;;;;;4.13;1.50;;;35.00;22.10;;;;;;5080655;28;20457;-86
2022/06/17 13:18:00;;;;;;;1.73;1.50;;;34.90;20.80;;;;;;5060718;28;20558;-86
2022/06/17 13:20:31;;;;;;;1.40;1.20;;;35.10;21.70;;;;;;5076073;28;20460;-86
2022/06/17 13:23:04;;;;;;;4.50;1.40;;;35.30;21.60;;;;;;5073367;28;20460;-87
2022/06/17 13:25:35;;;;;;;2.53;1.80;;;35.20;20.60;;;;;;5051204;28;20504;-86
2022/06/17 13:28:12;;;;;;;2.80;1.40;;;35.40;21.30;;;;;;5093070;28;20470;-88
2022/06/17 13:30:43;;;;;;;1.73;1.50;;;35.40;20.90;;;;;;5095768;27;20434;-88
2022/06/17 13:33:15;;;;;;;2.57;1.80;;;34.80;21.30;;;;;;5095333;27;20447;-87